< Cyclone 197807 1978 Season Cyclone 197809 >
Cyclone 197808 (BRENDA)
General InformationTrack Information on Google Maps || ResourceGoogle EarthGE AnimationAtom FeedGeoJSON
Detalied Best Track (Time Zone = UTC)
Year Month Day Hour Lat. Long. Pressure (hPa) Wind (kt) Class Image Chart
1978 4 5 01 -10.9 120.4 1007 0 0 -- --
1978 4 5 04 -11.1 120.2 1006 0 0 -- --
1978 4 5 07 -11.3 119.9 1005 0 0 -- --
1978 4 5 10 -11.4 119.7 1005 0 0 -- --
1978 4 5 13 -11.4 119.5 1005 0 0 -- --
1978 4 5 16 -11.5 119.2 1005 0 0 -- --
1978 4 5 19 -11.5 119.0 1003 0 0 -- --
1978 4 5 22 -11.6 118.7 1003 0 0 -- --
1978 4 6 01 -11.6 118.4 1003 0 0 -- --
1978 4 6 04 -11.6 118.2 1002 0 0 -- --
1978 4 6 07 -11.7 118.0 1001 0 0 -- --
1978 4 6 10 -11.7 117.8 1001 0 0 -- --
1978 4 6 13 -11.7 117.6 1000 0 0 -- --
1978 4 6 16 -11.8 117.4 999 0 0 -- --
1978 4 6 19 -11.8 117.2 998 0 0 -- --
1978 4 6 22 -11.9 117.0 996 0 0 -- --
1978 4 7 01 -11.9 116.7 995 0 0 -- --
1978 4 7 04 -12.0 116.5 994 0 0 -- --
1978 4 7 07 -12.0 116.3 993 0 0 -- --
1978 4 7 10 -12.1 116.1 992 0 0 -- --
1978 4 7 13 -12.2 115.8 992 0 0 -- --
1978 4 7 16 -12.4 115.5 991 0 0 -- --
1978 4 7 19 -12.5 115.3 990 0 0 -- --
1978 4 7 22 -12.6 115.1 990 0 0 -- --
1978 4 8 01 -12.7 114.9 990 0 0 -- --
1978 4 8 04 -12.8 114.7 990 0 0 -- --
1978 4 8 06 -12.9 114.6 990 0 0 -- --
1978 4 8 07 -13.0 114.5 990 0 0 -- --
1978 4 8 10 -13.2 114.2 990 0 0 -- --
1978 4 8 13 -13.4 114.0 990 0 0 -- --
1978 4 8 16 -13.6 113.8 990 0 0 -- --
1978 4 8 19 -13.8 113.7 990 0 0 -- --
1978 4 8 22 -14.1 113.6 990 0 0 -- --
1978 4 9 01 -14.3 113.6 990 0 0 -- --
1978 4 9 04 -14.4 113.6 990 0 0 -- --
1978 4 9 07 -14.5 113.7 990 0 0 -- --
1978 4 9 10 -14.6 113.8 990 0 0 -- --
1978 4 9 13 -14.7 113.9 990 0 0 -- --
1978 4 9 16 -14.7 114.1 990 0 0 -- --
1978 4 9 19 -14.7 114.2 990 0 0 -- --
1978 4 9 22 -14.7 114.4 990 0 0 -- --
1978 4 10 01 -14.7 114.6 990 0 0 -- --
1978 4 10 04 -14.8 114.8 990 0 0 -- --
1978 4 10 07 -14.9 115.1 990 0 0 -- --
1978 4 10 10 -15.1 115.3 991 0 0 -- --
1978 4 10 13 -15.2 115.5 992 0 0 -- --
1978 4 10 16 -15.3 115.7 993 0 0 -- --
1978 4 10 19 -15.4 115.9 994 0 0 -- --
1978 4 10 22 -15.5 116.1 995 0 0 -- --
1978 4 11 01 -15.6 116.2 995 0 0 -- --
1978 4 11 04 -15.7 116.4 996 0 0 -- --
1978 4 11 07 -15.7 116.5 996 0 0 -- --
1978 4 11 10 -15.7 116.7 997 0 0 -- --
1978 4 11 13 -15.8 116.8 997 0 0 -- --
1978 4 11 16 -15.8 117.1 998 0 0 -- --
1978 4 11 19 -15.8 117.2 999 0 0 -- --
1978 4 11 22 -15.8 117.3 1000 0 0 -- --
1978 4 12 01 -15.9 117.5 1001 0 0 -- --
1978 4 12 04 -16.1 117.8 1001 0 0 -- --
1978 4 12 07 -16.5 117.7 1001 0 0 -- --
1978 4 12 10 -16.6 117.5 1002 0 0 -- --
1978 4 12 13 -16.6 117.2 1002 0 0 -- --
1978 4 12 16 -16.6 116.9 1002 0 0 -- --
1978 4 12 19 -16.6 116.5 1003 0 0 -- --
1978 4 12 22 -16.7 116.2 1003 0 0 -- --
1978 4 13 01 -16.9 115.9 1004 0 0 -- --
1978 4 13 04 -17.1 115.5 1004 0 0 -- --
1978 4 13 07 -17.1 115.0 1004 0 0 -- --
1978 4 13 10 -17.2 114.5 1004 0 0 -- --
1978 4 13 13 -17.2 114.0 1004 0 0 -- --
1978 4 13 19 -17.3 113.0 1005 0 0 -- --
1978 4 14 01 -17.4 111.8 1006 0 0 -- --
< Cyclone 197807 1978 Season Cyclone 197809 >

Help